Terminal Aerodrome Forecast
Issued by NWS Binghamton, NY

Home | Current Version | Previous Version | Text Only | Print | Product List | Glossary On
Versions: 1 2 3 4 5 6 7 8 9 10 11 12 13 14 15 16 17 18 19
000
FTUS41 KBGM 260907 AAA
TAFAVP
TAF AMD
KAVP 260907Z 2609/2706 07005KT P6SM FEW250
     FM261400 17004KT P6SM SCT200
     FM261700 19008G16KT P6SM BKN180
     FM270300 21008KT 4SM -SHRA OVC025
     FM270500 21007KT 2SM -SHRA BR OVC015=

USA.gov is the U.S. government's official web portal to all federal, state and local government web resources and services.